sensor_id;sensor_type;location;lat;lon;timestamp;P1;P2;P0
67714;PMS7003;54505;44.022;20.458;2022-11-20T00:01:49;11.25;9.50;6.75
67714;PMS7003;54505;44.022;20.458;2022-11-20T00:04:15;12.50;10.75;8.75
67714;PMS7003;54505;44.022;20.458;2022-11-20T00:06:40;7.00;4.25;3.50
67714;PMS7003;54505;44.022;20.458;2022-11-20T00:09:08;9.25;8.25;7.00
67714;PMS7003;54505;44.022;20.458;2022-11-20T00:11:34;8.25;8.25;7.50
67714;PMS7003;54505;44.022;20.458;2022-11-20T00:14:01;17.50;13.75;9.25
67714;PMS7003;54505;44.022;20.458;2022-11-20T00:16:27;20.25;17.25;13.00
67714;PMS7003;54505;44.022;20.458;2022-11-20T00:18:53;30.50;21.25;15.75
67714;PMS7003;54505;44.022;20.458;2022-11-20T00:21:28;26.50;23.75;18.00
67714;PMS7003;54505;44.022;20.458;2022-11-20T00:23:55;29.50;22.00;16.00
67714;PMS7003;54505;44.022;20.458;2022-11-20T00:26:22;6.75;4.75;4.00
67714;PMS7003;54505;44.022;20.458;2022-11-20T00:28:58;11.00;9.00;7.00
67714;PMS7003;54505;44.022;20.458;2022-11-20T00:31:24;7.75;7.75;6.00
67714;PMS7003;54505;44.022;20.458;2022-11-20T00:33:50;6.50;6.50;5.25
67714;PMS7003;54505;44.022;20.458;2022-11-20T00:36:22;9.00;8.00;7.00
67714;PMS7003;54505;44.022;20.458;2022-11-20T00:38:52;9.75;7.00;5.50
67714;PMS7003;54505;44.022;20.458;2022-11-20T00:41:18;9.50;6.50;6.00
67714;PMS7003;54505;44.022;20.458;2022-11-20T00:43:44;7.25;6.25;4.00
67714;PMS7003;54505;44.022;20.458;2022-11-20T00:46:16;12.50;9.00;7.50
67714;PMS7003;54505;44.022;20.458;2022-11-20T00:48:42;27.75;19.00;13.00
67714;PMS7003;54505;44.022;20.458;2022-11-20T00:51:08;28.00;22.75;18.25
67714;PMS7003;54505;44.022;20.458;2022-11-20T00:53:35;32.00;28.75;19.75
67714;PMS7003;54505;44.022;20.458;2022-11-20T00:56:01;24.75;20.00;14.75
67714;PMS7003;54505;44.022;20.458;2022-11-20T00:58:31;25.75;22.75;18.00
67714;PMS7003;54505;44.022;20.458;2022-11-20T01:01:04;11.75;9.00;4.25
67714;PMS7003;54505;44.022;20.458;2022-11-20T01:03:31;24.25;22.75;15.50
67714;PMS7003;54505;44.022;20.458;2022-11-20T01:06:04;24.00;19.75;14.50
67714;PMS7003;54505;44.022;20.458;2022-11-20T01:08:31;45.00;38.25;25.50
67714;PMS7003;54505;44.022;20.458;2022-11-20T01:11:01;58.75;44.25;29.50
67714;PMS7003;54505;44.022;20.458;2022-11-20T01:13:28;40.00;36.00;24.00
67714;PMS7003;54505;44.022;20.458;2022-11-20T01:16:25;39.25;34.00;23.75
67714;PMS7003;54505;44.022;20.458;2022-11-20T01:18:49;35.50;28.25;18.50
67714;PMS7003;54505;44.022;20.458;2022-11-20T01:21:23;39.00;31.00;18.50
67714;PMS7003;54505;44.022;20.458;2022-11-20T01:23:49;26.75;22.75;17.50
67714;PMS7003;54505;44.022;20.458;2022-11-20T01:26:17;33.50;29.00;18.00
67714;PMS7003;54505;44.022;20.458;2022-11-20T01:28:43;23.50;20.25;13.50
67714;PMS7003;54505;44.022;20.458;2022-11-20T01:33:39;14.75;12.75;8.75
67714;PMS7003;54505;44.022;20.458;2022-11-20T01:36:05;13.75;10.25;8.00
67714;PMS7003;54505;44.022;20.458;2022-11-20T01:38:31;8.75;4.50;4.00
67714;PMS7003;54505;44.022;20.458;2022-11-20T01:40:56;6.75;5.00;3.75
67714;PMS7003;54505;44.022;20.458;2022-11-20T01:43:22;6.75;6.00;4.75
67714;PMS7003;54505;44.022;20.458;2022-11-20T01:48:25;22.50;17.00;12.75
67714;PMS7003;54505;44.022;20.458;2022-11-20T01:50:52;23.25;18.25;13.75
67714;PMS7003;54505;44.022;20.458;2022-11-20T01:53:23;18.00;16.25;13.00
67714;PMS7003;54505;44.022;20.458;2022-11-20T01:55:51;21.25;15.75;12.25
67714;PMS7003;54505;44.022;20.458;2022-11-20T01:58:18;19.25;17.75;13.25
67714;PMS7003;54505;44.022;20.458;2022-11-20T02:00:45;21.75;20.25;15.00
67714;PMS7003;54505;44.022;20.458;2022-11-20T02:03:13;21.25;20.00;13.50
67714;PMS7003;54505;44.022;20.458;2022-11-20T02:08:25;31.50;26.00;18.00
67714;PMS7003;54505;44.022;20.458;2022-11-20T02:10:50;27.25;24.25;18.25
67714;PMS7003;54505;44.022;20.458;2022-11-20T02:13:16;21.00;19.50;14.00
67714;PMS7003;54505;44.022;20.458;2022-11-20T02:16:00;30.50;24.25;16.50
67714;PMS7003;54505;44.022;20.458;2022-11-20T02:18:26;26.50;23.00;18.00
67714;PMS7003;54505;44.022;20.458;2022-11-20T02:20:53;30.50;26.00;20.00
67714;PMS7003;54505;44.022;20.458;2022-11-20T02:23:27;46.00;35.25;24.00
67714;PMS7003;54505;44.022;20.458;2022-11-20T02:25:56;28.50;25.00;19.50
67714;PMS7003;54505;44.022;20.458;2022-11-20T02:28:23;41.00;33.75;21.50
67714;PMS7003;54505;44.022;20.458;2022-11-20T02:30:48;48.75;36.00;22.75
67714;PMS7003;54505;44.022;20.458;2022-11-20T02:33:14;42.75;32.50;22.25
67714;PMS7003;54505;44.022;20.458;2022-11-20T02:35:41;39.50;35.50;21.75
67714;PMS7003;54505;44.022;20.458;2022-11-20T02:38:07;25.50;24.25;16.50
67714;PMS7003;54505;44.022;20.458;2022-11-20T02:40:33;28.75;24.00;15.00
67714;PMS7003;54505;44.022;20.458;2022-11-20T02:42:59;25.00;22.50;17.25
67714;PMS7003;54505;44.022;20.458;2022-11-20T02:45:24;19.25;16.25;13.00
67714;PMS7003;54505;44.022;20.458;2022-11-20T02:47:51;31.50;26.00;17.00
67714;PMS7003;54505;44.022;20.458;2022-11-20T02:50:16;28.50;23.00;18.25
67714;PMS7003;54505;44.022;20.458;2022-11-20T02:52:42;31.25;23.75;18.00
67714;PMS7003;54505;44.022;20.458;2022-11-20T02:55:08;31.50;26.75;19.00
67714;PMS7003;54505;44.022;20.458;2022-11-20T02:57:34;23.75;21.00;15.50
67714;PMS7003;54505;44.022;20.458;2022-11-20T03:00:00;21.25;21.25;17.00
67714;PMS7003;54505;44.022;20.458;2022-11-20T03:02:29;23.25;21.00;16.00
67714;PMS7003;54505;44.022;20.458;2022-11-20T03:04:54;20.50;15.50;11.75
67714;PMS7003;54505;44.022;20.458;2022-11-20T03:07:20;26.25;23.00;16.25
67714;PMS7003;54505;44.022;20.458;2022-11-20T03:09:46;24.00;22.00;15.75
67714;PMS7003;54505;44.022;20.458;2022-11-20T03:12:11;34.50;26.00;18.75
67714;PMS7003;54505;44.022;20.458;2022-11-20T03:14:37;28.25;24.00;16.50
67714;PMS7003;54505;44.022;20.458;2022-11-20T03:17:03;18.25;17.00;12.75
67714;PMS7003;54505;44.022;20.458;2022-11-20T03:19:28;15.75;15.25;11.00
67714;PMS7003;54505;44.022;20.458;2022-11-20T03:21:54;21.50;17.50;14.00
67714;PMS7003;54505;44.022;20.458;2022-11-20T03:24:20;14.50;12.00;9.00
67714;PMS7003;54505;44.022;20.458;2022-11-20T03:26:45;21.25;15.00;11.50
67714;PMS7003;54505;44.022;20.458;2022-11-20T03:29:11;15.75;15.75;12.25
67714;PMS7003;54505;44.022;20.458;2022-11-20T03:31:38;21.75;20.25;16.50
67714;PMS7003;54505;44.022;20.458;2022-11-20T03:34:08;29.00;22.00;16.50
67714;PMS7003;54505;44.022;20.458;2022-11-20T03:36:34;35.25;25.75;18.50
67714;PMS7003;54505;44.022;20.458;2022-11-20T03:39:00;26.00;24.50;16.00
67714;PMS7003;54505;44.022;20.458;2022-11-20T03:41:27;27.75;24.50;17.00
67714;PMS7003;54505;44.022;20.458;2022-11-20T03:46:19;34.25;27.75;21.50
67714;PMS7003;54505;44.022;20.458;2022-11-20T03:48:45;43.50;31.00;21.00
67714;PMS7003;54505;44.022;20.458;2022-11-20T03:53:37;36.75;32.00;23.00
67714;PMS7003;54505;44.022;20.458;2022-11-20T03:56:03;31.25;28.25;22.00
67714;PMS7003;54505;44.022;20.458;2022-11-20T03:58:29;35.25;28.75;16.25
67714;PMS7003;54505;44.022;20.458;2022-11-20T04:00:55;37.75;30.75;22.75
67714;PMS7003;54505;44.022;20.458;2022-11-20T04:03:20;32.25;28.00;19.75
67714;PMS7003;54505;44.022;20.458;2022-11-20T04:05:46;28.25;25.00;17.50
67714;PMS7003;54505;44.022;20.458;2022-11-20T04:08:12;31.75;26.50;19.25
67714;PMS7003;54505;44.022;20.458;2022-11-20T04:10:37;22.50;22.50;16.50
67714;PMS7003;54505;44.022;20.458;2022-11-20T04:13:03;30.75;28.25;20.75
67714;PMS7003;54505;44.022;20.458;2022-11-20T04:15:29;44.00;37.75;26.25
67714;PMS7003;54505;44.022;20.458;2022-11-20T04:17:54;44.75;37.50;25.00
67714;PMS7003;54505;44.022;20.458;2022-11-20T04:20:20;45.50;36.75;26.00
67714;PMS7003;54505;44.022;20.458;2022-11-20T04:22:45;44.00;38.75;26.00
67714;PMS7003;54505;44.022;20.458;2022-11-20T04:25:11;43.50;33.00;20.50
67714;PMS7003;54505;44.022;20.458;2022-11-20T04:27:37;22.50;20.75;16.00
67714;PMS7003;54505;44.022;20.458;2022-11-20T04:30:03;29.75;22.00;16.00
67714;PMS7003;54505;44.022;20.458;2022-11-20T04:32:28;48.25;34.25;23.00
67714;PMS7003;54505;44.022;20.458;2022-11-20T04:34:55;54.50;40.00;26.00
67714;PMS7003;54505;44.022;20.458;2022-11-20T04:37:21;53.00;37.75;26.00
67714;PMS7003;54505;44.022;20.458;2022-11-20T04:39:46;43.75;34.25;21.25
67714;PMS7003;54505;44.022;20.458;2022-11-20T04:42:12;31.00;24.00;16.50
67714;PMS7003;54505;44.022;20.458;2022-11-20T04:44:56;23.50;20.00;15.00
67714;PMS7003;54505;44.022;20.458;2022-11-20T04:47:22;18.75;17.00;13.00
67714;PMS7003;54505;44.022;20.458;2022-11-20T04:49:48;16.50;15.25;11.50
67714;PMS7003;54505;44.022;20.458;2022-11-20T04:52:13;20.25;20.00;16.00
67714;PMS7003;54505;44.022;20.458;2022-11-20T04:54:39;25.25;23.50;16.00
67714;PMS7003;54505;44.022;20.458;2022-11-20T04:57:04;25.50;24.75;17.75
67714;PMS7003;54505;44.022;20.458;2022-11-20T04:59:30;27.25;24.25;15.50
67714;PMS7003;54505;44.022;20.458;2022-11-20T05:01:55;27.25;26.50;18.50
67714;PMS7003;54505;44.022;20.458;2022-11-20T05:04:21;29.50;25.75;18.50
67714;PMS7003;54505;44.022;20.458;2022-11-20T05:06:47;25.25;24.25;18.00
67714;PMS7003;54505;44.022;20.458;2022-11-20T05:09:13;21.50;21.50;17.25
67714;PMS7003;54505;44.022;20.458;2022-11-20T05:11:38;19.00;18.75;13.25
67714;PMS7003;54505;44.022;20.458;2022-11-20T05:14:04;36.00;34.50;26.25
67714;PMS7003;54505;44.022;20.458;2022-11-20T05:16:29;24.00;16.00;11.50
67714;PMS7003;54505;44.022;20.458;2022-11-20T05:18:55;19.25;17.25;13.25
67714;PMS7003;54505;44.022;20.458;2022-11-20T05:21:21;12.50;12.50;9.75
67714;PMS7003;54505;44.022;20.458;2022-11-20T05:23:47;17.25;15.75;12.75
67714;PMS7003;54505;44.022;20.458;2022-11-20T05:26:14;24.75;21.00;16.25
67714;PMS7003;54505;44.022;20.458;2022-11-20T05:28:40;17.50;16.00;12.75
67714;PMS7003;54505;44.022;20.458;2022-11-20T05:31:06;18.75;14.25;10.50
67714;PMS7003;54505;44.022;20.458;2022-11-20T05:33:33;4.00;3.25;3.00
67714;PMS7003;54505;44.022;20.458;2022-11-20T05:35:59;21.25;14.25;10.00
67714;PMS7003;54505;44.022;20.458;2022-11-20T05:38:25;23.00;15.75;11.00
67714;PMS7003;54505;44.022;20.458;2022-11-20T05:40:50;16.50;14.75;9.25
67714;PMS7003;54505;44.022;20.458;2022-11-20T05:43:16;25.25;18.00;12.50
67714;PMS7003;54505;44.022;20.458;2022-11-20T05:45:41;22.50;18.50;12.50
67714;PMS7003;54505;44.022;20.458;2022-11-20T05:48:07;21.00;19.00;13.25
67714;PMS7003;54505;44.022;20.458;2022-11-20T05:50:32;25.00;20.75;14.00
67714;PMS7003;54505;44.022;20.458;2022-11-20T05:52:59;27.00;20.50;13.25
67714;PMS7003;54505;44.022;20.458;2022-11-20T05:55:25;32.75;27.00;14.00
67714;PMS7003;54505;44.022;20.458;2022-11-20T05:57:52;24.75;23.00;15.50
67714;PMS7003;54505;44.022;20.458;2022-11-20T06:00:17;28.75;21.25;14.50
67714;PMS7003;54505;44.022;20.458;2022-11-20T06:02:43;30.75;27.50;14.00
67714;PMS7003;54505;44.022;20.458;2022-11-20T06:05:09;26.75;20.50;14.75
67714;PMS7003;54505;44.022;20.458;2022-11-20T06:07:34;29.75;25.75;15.75
67714;PMS7003;54505;44.022;20.458;2022-11-20T06:10:00;31.25;26.00;15.00
67714;PMS7003;54505;44.022;20.458;2022-11-20T06:12:26;34.25;29.00;17.00
67714;PMS7003;54505;44.022;20.458;2022-11-20T06:14:51;34.75;29.75;15.75
67714;PMS7003;54505;44.022;20.458;2022-11-20T06:17:17;37.75;29.75;18.75
67714;PMS7003;54505;44.022;20.458;2022-11-20T06:19:42;36.75;26.25;13.00
67714;PMS7003;54505;44.022;20.458;2022-11-20T06:22:08;35.50;28.00;18.75
67714;PMS7003;54505;44.022;20.458;2022-11-20T06:24:33;31.25;25.75;17.50
67714;PMS7003;54505;44.022;20.458;2022-11-20T06:26:59;29.75;27.25;17.75
67714;PMS7003;54505;44.022;20.458;2022-11-20T06:29:25;35.50;27.75;19.25
67714;PMS7003;54505;44.022;20.458;2022-11-20T06:31:51;40.25;25.25;15.00
67714;PMS7003;54505;44.022;20.458;2022-11-20T06:34:16;33.50;25.00;17.00
67714;PMS7003;54505;44.022;20.458;2022-11-20T06:36:42;30.50;26.25;17.00
67714;PMS7003;54505;44.022;20.458;2022-11-20T06:39:08;39.50;35.75;22.50
67714;PMS7003;54505;44.022;20.458;2022-11-20T06:41:34;24.00;22.75;14.25
67714;PMS7003;54505;44.022;20.458;2022-11-20T06:43:59;26.25;20.00;14.25
67714;PMS7003;54505;44.022;20.458;2022-11-20T06:46:25;27.75;24.50;14.00
67714;PMS7003;54505;44.022;20.458;2022-11-20T06:48:51;36.50;31.00;21.00
67714;PMS7003;54505;44.022;20.458;2022-11-20T06:51:16;38.50;24.75;18.25
67714;PMS7003;54505;44.022;20.458;2022-11-20T06:53:42;40.00;30.50;18.00
67714;PMS7003;54505;44.022;20.458;2022-11-20T06:56:08;33.50;31.00;20.00
67714;PMS7003;54505;44.022;20.458;2022-11-20T06:58:34;35.25;30.25;19.25
67714;PMS7003;54505;44.022;20.458;2022-11-20T07:01:04;36.75;29.00;19.50
67714;PMS7003;54505;44.022;20.458;2022-11-20T07:03:29;23.25;22.00;13.25
67714;PMS7003;54505;44.022;20.458;2022-11-20T07:05:56;30.25;27.75;19.00
67714;PMS7003;54505;44.022;20.458;2022-11-20T07:08:22;25.00;21.50;15.25
67714;PMS7003;54505;44.022;20.458;2022-11-20T07:10:47;23.25;20.75;11.75
67714;PMS7003;54505;44.022;20.458;2022-11-20T07:13:13;23.50;18.25;13.25
67714;PMS7003;54505;44.022;20.458;2022-11-20T07:15:39;25.75;20.75;15.00
67714;PMS7003;54505;44.022;20.458;2022-11-20T07:18:05;21.75;19.25;14.50
67714;PMS7003;54505;44.022;20.458;2022-11-20T07:20:30;22.50;18.25;12.75
67714;PMS7003;54505;44.022;20.458;2022-11-20T07:22:56;20.25;15.25;12.00
67714;PMS7003;54505;44.022;20.458;2022-11-20T07:25:23;19.50;17.25;13.00
67714;PMS7003;54505;44.022;20.458;2022-11-20T07:27:49;18.25;14.25;11.75
67714;PMS7003;54505;44.022;20.458;2022-11-20T07:30:15;17.25;16.50;12.00
67714;PMS7003;54505;44.022;20.458;2022-11-20T07:32:40;24.50;23.75;17.75
67714;PMS7003;54505;44.022;20.458;2022-11-20T07:35:07;21.00;18.00;13.00
67714;PMS7003;54505;44.022;20.458;2022-11-20T07:37:35;20.50;16.50;12.00
67714;PMS7003;54505;44.022;20.458;2022-11-20T07:40:01;18.50;14.75;11.25
67714;PMS7003;54505;44.022;20.458;2022-11-20T07:42:27;28.25;25.50;19.00
67714;PMS7003;54505;44.022;20.458;2022-11-20T07:44:53;23.75;22.25;16.50
67714;PMS7003;54505;44.022;20.458;2022-11-20T07:47:18;27.50;24.25;18.75
67714;PMS7003;54505;44.022;20.458;2022-11-20T07:49:44;40.00;33.75;24.75
67714;PMS7003;54505;44.022;20.458;2022-11-20T07:52:10;42.25;35.50;24.25
67714;PMS7003;54505;44.022;20.458;2022-11-20T07:54:35;38.75;35.50;24.25
67714;PMS7003;54505;44.022;20.458;2022-11-20T07:57:01;40.00;34.50;24.25
67714;PMS7003;54505;44.022;20.458;2022-11-20T07:59:27;39.50;35.25;23.25
67714;PMS7003;54505;44.022;20.458;2022-11-20T08:01:52;33.50;30.50;24.50
67714;PMS7003;54505;44.022;20.458;2022-11-20T08:04:18;41.25;33.25;24.25
67714;PMS7003;54505;44.022;20.458;2022-11-20T08:06:43;34.00;30.75;22.50
67714;PMS7003;54505;44.022;20.458;2022-11-20T08:09:10;16.50;16.50;10.25
67714;PMS7003;54505;44.022;20.458;2022-11-20T08:11:35;17.25;17.25;13.00
67714;PMS7003;54505;44.022;20.458;2022-11-20T08:14:20;24.00;22.75;14.75
67714;PMS7003;54505;44.022;20.458;2022-11-20T08:16:46;29.75;28.25;17.75
67714;PMS7003;54505;44.022;20.458;2022-11-20T08:19:13;32.00;24.75;19.00
67714;PMS7003;54505;44.022;20.458;2022-11-20T08:21:39;23.75;18.50;12.50
67714;PMS7003;54505;44.022;20.458;2022-11-20T08:24:06;24.25;19.75;13.50
67714;PMS7003;54505;44.022;20.458;2022-11-20T08:26:32;24.25;22.75;14.50
67714;PMS7003;54505;44.022;20.458;2022-11-20T08:28:58;14.75;13.25;9.75
67714;PMS7003;54505;44.022;20.458;2022-11-20T08:31:24;25.00;17.25;13.00
67714;PMS7003;54505;44.022;20.458;2022-11-20T08:33:50;21.25;19.75;14.00
67714;PMS7003;54505;44.022;20.458;2022-11-20T08:36:16;22.00;19.00;13.75
67714;PMS7003;54505;44.022;20.458;2022-11-20T08:38:42;31.00;28.25;19.75
67714;PMS7003;54505;44.022;20.458;2022-11-20T08:41:11;28.25;23.75;17.00
67714;PMS7003;54505;44.022;20.458;2022-11-20T08:43:53;29.25;23.00;16.00
67714;PMS7003;54505;44.022;20.458;2022-11-20T08:46:19;40.00;29.50;19.75
67714;PMS7003;54505;44.022;20.458;2022-11-20T08:48:45;28.25;20.25;14.25
67714;PMS7003;54505;44.022;20.458;2022-11-20T08:51:11;35.75;32.00;21.75
67714;PMS7003;54505;44.022;20.458;2022-11-20T08:53:37;45.25;31.75;19.50
67714;PMS7003;54505;44.022;20.458;2022-11-20T08:56:03;33.25;28.25;21.75
67714;PMS7003;54505;44.022;20.458;2022-11-20T08:58:29;32.75;26.25;18.25
67714;PMS7003;54505;44.022;20.458;2022-11-20T09:00:54;31.00;27.00;16.75
67714;PMS7003;54505;44.022;20.458;2022-11-20T09:03:20;33.25;29.50;19.75
67714;PMS7003;54505;44.022;20.458;2022-11-20T09:05:46;28.00;23.25;15.75
67714;PMS7003;54505;44.022;20.458;2022-11-20T09:08:12;28.50;23.00;14.00
67714;PMS7003;54505;44.022;20.458;2022-11-20T09:10:38;22.75;20.50;14.50
67714;PMS7003;54505;44.022;20.458;2022-11-20T09:13:07;34.75;29.75;21.00
67714;PMS7003;54505;44.022;20.458;2022-11-20T09:15:32;37.75;32.75;21.25
67714;PMS7003;54505;44.022;20.458;2022-11-20T09:18:00;49.00;37.25;26.25
67714;PMS7003;54505;44.022;20.458;2022-11-20T09:20:27;50.75;40.75;26.00
67714;PMS7003;54505;44.022;20.458;2022-11-20T09:22:54;29.25;24.75;18.50
67714;PMS7003;54505;44.022;20.458;2022-11-20T09:25:19;74.75;57.50;38.50
67714;PMS7003;54505;44.022;20.458;2022-11-20T09:27:45;39.50;35.75;23.75
67714;PMS7003;54505;44.022;20.458;2022-11-20T09:30:11;52.75;40.50;27.25
67714;PMS7003;54505;44.022;20.458;2022-11-20T09:32:41;42.50;36.25;24.00
67714;PMS7003;54505;44.022;20.458;2022-11-20T09:35:06;44.25;35.75;22.00
67714;PMS7003;54505;44.022;20.458;2022-11-20T09:37:32;35.25;32.25;24.00
67714;PMS7003;54505;44.022;20.458;2022-11-20T09:39:58;44.00;33.00;20.50
67714;PMS7003;54505;44.022;20.458;2022-11-20T09:45:08;32.25;22.75;16.25
67714;PMS7003;54505;44.022;20.458;2022-11-20T09:50:25;39.00;33.00;20.75
67714;PMS7003;54505;44.022;20.458;2022-11-20T09:55:33;56.25;45.75;30.50
67714;PMS7003;54505;44.022;20.458;2022-11-20T09:58:01;38.75;31.50;23.25
67714;PMS7003;54505;44.022;20.458;2022-11-20T10:00:30;34.25;29.75;20.50
67714;PMS7003;54505;44.022;20.458;2022-11-20T10:03:13;41.25;37.25;24.00
67714;PMS7003;54505;44.022;20.458;2022-11-20T10:05:51;35.25;29.75;19.75
67714;PMS7003;54505;44.022;20.458;2022-11-20T10:16:03;69.00;53.00;32.75
67714;PMS7003;54505;44.022;20.458;2022-11-20T10:29:18;37.50;33.25;23.00
67714;PMS7003;54505;44.022;20.458;2022-11-20T10:31:45;44.25;36.00;24.50
67714;PMS7003;54505;44.022;20.458;2022-11-20T10:37:00;34.00;29.75;20.50
67714;PMS7003;54505;44.022;20.458;2022-11-20T10:39:33;41.50;34.75;24.00
67714;PMS7003;54505;44.022;20.458;2022-11-20T10:42:00;20.25;20.25;15.00
67714;PMS7003;54505;44.022;20.458;2022-11-20T10:44:27;35.00;30.00;22.50
67714;PMS7003;54505;44.022;20.458;2022-11-20T10:47:12;39.25;32.75;20.00
67714;PMS7003;54505;44.022;20.458;2022-11-20T10:49:38;40.25;33.50;24.00
67714;PMS7003;54505;44.022;20.458;2022-11-20T10:52:09;41.50;36.25;23.25
67714;PMS7003;54505;44.022;20.458;2022-11-20T10:57:25;35.00;34.25;22.25
67714;PMS7003;54505;44.022;20.458;2022-11-20T11:00:09;47.75;39.25;27.00
67714;PMS7003;54505;44.022;20.458;2022-11-20T11:02:39;60.50;44.50;30.50
67714;PMS7003;54505;44.022;20.458;2022-11-20T11:05:14;55.50;43.00;29.00
67714;PMS7003;54505;44.022;20.458;2022-11-20T11:07:42;59.50;45.50;28.75
67714;PMS7003;54505;44.022;20.458;2022-11-20T11:10:14;51.25;37.75;26.50
67714;PMS7003;54505;44.022;20.458;2022-11-20T11:12:43;34.50;31.25;23.00
67714;PMS7003;54505;44.022;20.458;2022-11-20T11:15:11;61.75;45.25;30.75
67714;PMS7003;54505;44.022;20.458;2022-11-20T11:17:37;39.00;30.75;21.75
67714;PMS7003;54505;44.022;20.458;2022-11-20T11:20:49;48.00;38.75;26.25
67714;PMS7003;54505;44.022;20.458;2022-11-20T11:23:03;44.75;39.00;27.75
67714;PMS7003;54505;44.022;20.458;2022-11-20T11:25:30;39.75;30.75;21.25
67714;PMS7003;54505;44.022;20.458;2022-11-20T11:28:17;34.25;27.75;18.25
67714;PMS7003;54505;44.022;20.458;2022-11-20T11:30:45;48.00;35.75;21.75
67714;PMS7003;54505;44.022;20.458;2022-11-20T11:33:17;42.50;35.25;24.25
67714;PMS7003;54505;44.022;20.458;2022-11-20T11:35:45;30.00;29.75;18.50
67714;PMS7003;54505;44.022;20.458;2022-11-20T11:38:12;34.00;29.75;21.00
67714;PMS7003;54505;44.022;20.458;2022-11-20T11:40:39;58.75;44.75;28.25
67714;PMS7003;54505;44.022;20.458;2022-11-20T11:43:06;63.25;49.75;32.00
67714;PMS7003;54505;44.022;20.458;2022-11-20T11:45:54;42.50;36.50;24.00
67714;PMS7003;54505;44.022;20.458;2022-11-20T11:48:20;41.25;33.75;21.75
67714;PMS7003;54505;44.022;20.458;2022-11-20T11:50:49;41.25;37.00;23.25
67714;PMS7003;54505;44.022;20.458;2022-11-20T11:53:16;39.75;32.75;22.00
67714;PMS7003;54505;44.022;20.458;2022-11-20T11:55:44;45.25;35.25;22.75
67714;PMS7003;54505;44.022;20.458;2022-11-20T12:00:36;50.25;36.75;22.00
67714;PMS7003;54505;44.022;20.458;2022-11-20T12:03:14;37.25;34.50;23.00
67714;PMS7003;54505;44.022;20.458;2022-11-20T12:06:01;36.75;30.75;20.75
67714;PMS7003;54505;44.022;20.458;2022-11-20T12:08:31;36.75;30.50;21.25
67714;PMS7003;54505;44.022;20.458;2022-11-20T12:13:48;32.25;27.50;15.25
67714;PMS7003;54505;44.022;20.458;2022-11-20T12:16:13;47.25;39.50;25.25
67714;PMS7003;54505;44.022;20.458;2022-11-20T12:18:39;52.50;35.50;24.00
67714;PMS7003;54505;44.022;20.458;2022-11-20T12:31:52;47.75;38.25;25.00
67714;PMS7003;54505;44.022;20.458;2022-11-20T12:34:24;43.25;37.00;25.50
67714;PMS7003;54505;44.022;20.458;2022-11-20T12:37:04;46.50;39.25;23.50
67714;PMS7003;54505;44.022;20.458;2022-11-20T12:39:42;56.25;40.00;27.25
67714;PMS7003;54505;44.022;20.458;2022-11-20T12:47:41;37.75;27.25;18.50
67714;PMS7003;54505;44.022;20.458;2022-11-20T12:53:02;61.25;45.00;29.75
67714;PMS7003;54505;44.022;20.458;2022-11-20T13:06:05;59.25;44.50;27.50
67714;PMS7003;54505;44.022;20.458;2022-11-20T13:08:35;117.25;91.25;52.50
67714;PMS7003;54505;44.022;20.458;2022-11-20T13:16:48;38.50;33.25;23.25
67714;PMS7003;54505;44.022;20.458;2022-11-20T13:19:16;35.75;27.25;18.25
67714;PMS7003;54505;44.022;20.458;2022-11-20T13:21:43;34.00;26.75;18.75
67714;PMS7003;54505;44.022;20.458;2022-11-20T13:26:59;23.25;21.25;14.25
67714;PMS7003;54505;44.022;20.458;2022-11-20T13:29:25;23.50;20.00;12.25
67714;PMS7003;54505;44.022;20.458;2022-11-20T13:31:50;32.00;24.25;17.75
67714;PMS7003;54505;44.022;20.458;2022-11-20T13:34:24;24.25;22.00;16.75
67714;PMS7003;54505;44.022;20.458;2022-11-20T13:36:52;21.75;17.50;15.25
67714;PMS7003;54505;44.022;20.458;2022-11-20T13:39:28;24.50;20.75;16.00
67714;PMS7003;54505;44.022;20.458;2022-11-20T13:41:55;30.75;22.25;15.00
67714;PMS7003;54505;44.022;20.458;2022-11-20T13:44:23;27.25;21.75;15.75
67714;PMS7003;54505;44.022;20.458;2022-11-20T13:46:50;25.00;22.75;13.00
67714;PMS7003;54505;44.022;20.458;2022-11-20T13:49:26;27.25;23.25;17.00
67714;PMS7003;54505;44.022;20.458;2022-11-20T13:51:55;27.25;23.00;15.00
67714;PMS7003;54505;44.022;20.458;2022-11-20T14:02:16;29.00;26.00;17.00
67714;PMS7003;54505;44.022;20.458;2022-11-20T14:04:45;28.25;25.00;17.25
67714;PMS7003;54505;44.022;20.458;2022-11-20T14:07:11;25.75;22.75;17.00
67714;PMS7003;54505;44.022;20.458;2022-11-20T14:09:37;30.50;25.00;17.00
67714;PMS7003;54505;44.022;20.458;2022-11-20T14:12:03;48.50;38.00;23.75
67714;PMS7003;54505;44.022;20.458;2022-11-20T14:14:30;50.00;40.00;27.25
67714;PMS7003;54505;44.022;20.458;2022-11-20T14:17:06;25.50;22.25;14.25
67714;PMS7003;54505;44.022;20.458;2022-11-20T14:19:32;45.75;39.25;26.00
67714;PMS7003;54505;44.022;20.458;2022-11-20T14:22:08;51.00;38.25;27.25
67714;PMS7003;54505;44.022;20.458;2022-11-20T14:24:34;34.25;28.75;19.25
67714;PMS7003;54505;44.022;20.458;2022-11-20T14:27:00;34.00;27.00;19.75
67714;PMS7003;54505;44.022;20.458;2022-11-20T14:29:29;26.25;24.25;19.25
67714;PMS7003;54505;44.022;20.458;2022-11-20T14:31:58;25.00;23.50;16.00
67714;PMS7003;54505;44.022;20.458;2022-11-20T14:34:25;39.00;34.25;25.00
67714;PMS7003;54505;44.022;20.458;2022-11-20T14:37:01;45.50;41.25;28.00
67714;PMS7003;54505;44.022;20.458;2022-11-20T14:39:31;40.00;37.00;25.00
67714;PMS7003;54505;44.022;20.458;2022-11-20T14:41:58;34.50;32.50;24.25
67714;PMS7003;54505;44.022;20.458;2022-11-20T14:44:29;22.50;16.50;13.00
67714;PMS7003;54505;44.022;20.458;2022-11-20T14:46:57;31.50;25.00;17.25
67714;PMS7003;54505;44.022;20.458;2022-11-20T14:49:24;31.75;27.50;18.25
67714;PMS7003;54505;44.022;20.458;2022-11-20T14:52:00;47.50;37.25;27.25
67714;PMS7003;54505;44.022;20.458;2022-11-20T14:54:27;38.50;32.00;24.00
67714;PMS7003;54505;44.022;20.458;2022-11-20T14:56:54;43.50;38.75;26.00
67714;PMS7003;54505;44.022;20.458;2022-11-20T14:59:24;25.75;24.25;18.50
67714;PMS7003;54505;44.022;20.458;2022-11-20T15:02:00;20.75;15.75;13.00
67714;PMS7003;54505;44.022;20.458;2022-11-20T15:04:26;32.50;27.00;19.50
67714;PMS7003;54505;44.022;20.458;2022-11-20T15:06:53;57.00;40.00;28.00
67714;PMS7003;54505;44.022;20.458;2022-11-20T15:09:20;34.75;27.25;18.50
67714;PMS7003;54505;44.022;20.458;2022-11-20T15:11:59;34.75;30.00;21.25
67714;PMS7003;54505;44.022;20.458;2022-11-20T15:14:26;30.25;28.50;21.75
67714;PMS7003;54505;44.022;20.458;2022-11-20T15:16:52;46.00;37.50;24.75